Terminal Aerodrome Forecast
Issued by NWS Charleston, WV

Current Version | Previous Version | Graphics & Text | Print | Product List | Glossary On
Versions: 1 2 3 4 5 6 7 8 9 10 11 12 13 14 15 16 17 18 19 20 21 22 23
024
FTUS41 KRLX 260545
TAFEKN
TAF
KEKN 260545Z 2606/2706 00000KT P6SM SCT040
     FM260700 00000KT 5SM BR SCT040
     FM260800 00000KT 2SM BR SCT040
     FM260900 00000KT 1SM BR SCT001
      TEMPO 2609/2612 1/4SM FG BKN001
     FM261200 00000KT 1/2SM FG BKN001
     FM261300 00000KT 3SM BR SCT002
     FM261400 00000KT P6SM FEW060=

USA.gov is the U.S. government's official web portal to all federal, state and local government web resources and services.